createdAt,value
2023-03-19T00:02:16.290Z,64.48
2023-03-19T00:04:43.782Z,64.43
2023-03-19T00:07:11.265Z,64.43
2023-03-19T00:09:38.173Z,64.38
2023-03-19T00:12:05.552Z,63.98
2023-03-19T00:14:32.452Z,64.07
2023-03-19T00:16:59.102Z,64.46
2023-03-19T00:19:25.906Z,64.26
2023-03-19T00:21:52.736Z,64.23
2023-03-19T00:24:19.589Z,64.41
2023-03-19T00:26:46.293Z,64.41
2023-03-19T00:29:13.668Z,64.21
2023-03-19T00:31:40.900Z,64.17
2023-03-19T00:34:08.585Z,64.29
2023-03-19T00:36:35.696Z,64.32
2023-03-19T00:39:03.190Z,64.08
2023-03-19T00:41:29.992Z,64.13
2023-03-19T00:43:57.622Z,63.93
2023-03-19T00:46:30.112Z,63.97
2023-03-19T00:48:58.521Z,64.10
2023-03-19T00:51:26.104Z,64.09
2023-03-19T00:53:52.837Z,64.19
2023-03-19T00:56:19.961Z,64.22
2023-03-19T00:58:47.739Z,63.87
2023-03-19T01:01:17.041Z,64.13
2023-03-19T01:03:45.583Z,64.04
2023-03-19T01:06:12.873Z,64.02
2023-03-19T01:08:39.733Z,63.92
2023-03-19T01:11:14.376Z,63.94
2023-03-19T01:13:42.257Z,64.13
2023-03-19T01:16:09.835Z,64.53
2023-03-19T01:18:37.188Z,64.43
2023-03-19T01:21:04.434Z,64.44
2023-03-19T01:23:32.411Z,64.39
2023-03-19T01:25:59.944Z,64.32
2023-03-19T01:28:28.260Z,64.29
2023-03-19T01:31:00.103Z,64.43
2023-03-19T01:33:51.823Z,64.31
2023-03-19T01:36:37.479Z,64.28
2023-03-19T01:39:06.722Z,64.40
2023-03-19T01:41:33.824Z,64.46
2023-03-19T01:44:32.360Z,64.53
2023-03-19T01:47:39.547Z,64.15
2023-03-19T01:50:28.217Z,64.10
2023-03-19T01:53:15.213Z,64.09
2023-03-19T01:55:47.877Z,64.21
2023-03-19T01:58:42.276Z,64.07
2023-03-19T02:01:20.711Z,64.36
2023-03-19T02:03:52.109Z,63.94
2023-03-19T02:06:24.590Z,63.90
2023-03-19T02:08:51.819Z,63.87
2023-03-19T02:11:19.254Z,63.66
2023-03-19T02:13:47.226Z,63.84
2023-03-19T02:16:15.524Z,63.69
2023-03-19T02:18:42.710Z,63.61
2023-03-19T02:21:11.674Z,63.73
2023-03-19T02:24:01.467Z,64.01
2023-03-19T02:26:51.719Z,63.99
2023-03-19T02:29:18.647Z,64.04
2023-03-19T02:31:47.281Z,63.98
2023-03-19T02:34:14.024Z,64.13
2023-03-19T02:36:49.274Z,64.01
2023-03-19T02:39:27.318Z,64.03
2023-03-19T02:41:54.856Z,64.00
2023-03-19T02:44:23.386Z,64.00
2023-03-19T02:46:51.961Z,63.93
2023-03-19T02:49:19.118Z,64.04
2023-03-19T02:51:46.255Z,63.87
2023-03-19T02:54:13.015Z,64.02
2023-03-19T02:56:39.778Z,63.97
2023-03-19T02:59:06.777Z,64.01
2023-03-19T03:01:33.731Z,64.10
2023-03-19T03:04:00.707Z,64.43
2023-03-19T03:06:27.464Z,63.90
2023-03-19T03:08:54.622Z,64.32
2023-03-19T03:11:21.328Z,64.22
2023-03-19T03:13:48.030Z,64.22
2023-03-19T03:16:15.730Z,64.36
2023-03-19T03:18:42.566Z,64.18
2023-03-19T03:21:10.322Z,64.04
2023-03-19T03:23:37.498Z,63.87
2023-03-19T03:26:04.340Z,64.14
2023-03-19T03:28:31.027Z,64.15
2023-03-19T03:30:59.548Z,64.19
2023-03-19T03:33:26.311Z,63.90
2023-03-19T03:35:53.057Z,64.19
2023-03-19T03:38:19.763Z,64.02
2023-03-19T03:40:50.810Z,64.33
2023-03-19T03:43:18.088Z,64.04
2023-03-19T03:45:45.188Z,64.32
2023-03-19T03:48:11.901Z,64.20
2023-03-19T03:50:38.681Z,64.26
2023-03-19T03:53:08.921Z,63.81
2023-03-19T03:55:35.938Z,64.06
2023-03-19T03:58:03.059Z,64.10
2023-03-19T04:00:29.963Z,64.73
2023-03-19T04:02:56.779Z,64.42
2023-03-19T04:05:23.554Z,64.08
2023-03-19T04:07:51.816Z,63.77
2023-03-19T04:10:19.477Z,63.79
2023-03-19T04:12:46.899Z,63.45
2023-03-19T04:15:13.833Z,63.42
2023-03-19T04:17:43.444Z,63.46
2023-03-19T04:20:11.217Z,63.02
2023-03-19T04:22:38.244Z,63.09
2023-03-19T04:25:08.376Z,63.18
2023-03-19T04:27:36.218Z,63.07
2023-03-19T04:30:04.388Z,63.27
2023-03-19T04:32:31.176Z,63.03
2023-03-19T04:34:58.595Z,62.89
2023-03-19T04:37:25.298Z,62.88
2023-03-19T04:39:52.219Z,62.90
2023-03-19T04:42:19.254Z,62.66
2023-03-19T04:44:52.615Z,62.88
2023-03-19T04:47:20.227Z,62.85
2023-03-19T04:49:53.887Z,62.87
2023-03-19T04:52:22.291Z,63.04
2023-03-19T04:54:49.839Z,63.15
2023-03-19T04:57:17.451Z,63.26
2023-03-19T04:59:46.675Z,62.69
2023-03-19T05:02:15.692Z,63.06
2023-03-19T05:04:43.265Z,62.77
2023-03-19T05:07:13.457Z,63.13
2023-03-19T05:09:43.248Z,63.05
2023-03-19T05:12:11.774Z,63.54
2023-03-19T05:14:43.690Z,63.03
2023-03-19T05:17:18.325Z,63.53
2023-03-19T05:20:05.701Z,63.47
2023-03-19T05:22:34.404Z,63.35
2023-03-19T05:25:01.232Z,63.35
2023-03-19T05:27:29.342Z,63.34
2023-03-19T05:30:06.436Z,63.39
2023-03-19T05:32:51.329Z,63.67
2023-03-19T05:35:33.719Z,63.44
2023-03-19T05:38:02.398Z,63.40
2023-03-19T05:40:29.350Z,63.64
2023-03-19T05:42:58.417Z,63.95
2023-03-19T05:45:28.169Z,64.32
2023-03-19T05:47:58.354Z,64.71
2023-03-19T05:50:25.909Z,65.22
2023-03-19T05:53:09.233Z,65.49
2023-03-19T05:55:39.233Z,65.71
2023-03-19T05:58:08.898Z,66.16
2023-03-19T06:01:04.922Z,66.46
2023-03-19T06:04:37.330Z,67.43
2023-03-19T06:07:04.531Z,67.76
2023-03-19T06:09:31.705Z,68.71
2023-03-19T06:11:58.544Z,69.05
2023-03-19T06:14:52.127Z,69.45
2023-03-19T06:17:37.441Z,70.54
2023-03-19T06:20:08.053Z,71.05
2023-03-19T06:22:35.018Z,71.70
2023-03-19T06:25:01.949Z,72.42
2023-03-19T06:27:30.975Z,73.22
2023-03-19T06:30:10.175Z,73.82
2023-03-19T06:32:37.328Z,74.24
2023-03-19T06:35:09.092Z,75.05
2023-03-19T06:37:36.712Z,75.30
2023-03-19T06:40:05.168Z,75.86
2023-03-19T06:42:32.311Z,75.97
2023-03-19T06:44:59.135Z,76.30
2023-03-19T06:47:26.336Z,76.69
2023-03-19T06:49:52.993Z,77.06
2023-03-19T06:52:19.765Z,77.02
2023-03-19T06:54:46.758Z,77.12
2023-03-19T06:57:13.520Z,77.15
2023-03-19T06:59:40.319Z,77.78
2023-03-19T07:02:08.997Z,77.55
2023-03-19T07:04:36.758Z,77.71
2023-03-19T07:07:05.933Z,78.03
2023-03-19T07:09:32.934Z,78.09
2023-03-19T07:11:59.725Z,77.77
2023-03-19T07:14:26.576Z,77.83
2023-03-19T07:16:53.398Z,77.84
2023-03-19T07:19:20.394Z,78.46
2023-03-19T07:21:47.205Z,79.15
2023-03-19T07:24:14.002Z,79.36
2023-03-19T07:26:40.876Z,79.47
2023-03-19T07:29:09.730Z,79.59
2023-03-19T07:31:47.573Z,79.81
2023-03-19T07:34:17.223Z,79.59
2023-03-19T07:36:45.000Z,79.53
2023-03-19T07:39:11.849Z,79.60
2023-03-19T07:41:38.702Z,79.85
2023-03-19T07:44:06.490Z,80.00
2023-03-19T07:46:33.312Z,80.37
2023-03-19T07:49:00.103Z,80.49
2023-03-19T07:51:27.385Z,80.31
2023-03-19T07:53:54.216Z,80.63
2023-03-19T07:56:21.528Z,80.82
2023-03-19T07:58:48.523Z,80.95
2023-03-19T08:01:15.604Z,80.85
2023-03-19T08:03:42.342Z,81.03
2023-03-19T08:06:09.074Z,81.00
2023-03-19T08:08:36.752Z,81.32
2023-03-19T08:11:04.054Z,81.81
2023-03-19T08:13:31.824Z,81.79
2023-03-19T08:16:01.360Z,81.79
2023-03-19T08:18:28.494Z,81.98
2023-03-19T08:20:55.370Z,82.06
2023-03-19T08:23:22.304Z,81.79
2023-03-19T08:25:51.898Z,82.21
2023-03-19T08:28:18.734Z,82.42
2023-03-19T08:30:46.192Z,82.42
2023-03-19T08:33:13.146Z,82.37
2023-03-19T08:35:40.167Z,82.52
2023-03-19T08:38:07.180Z,82.36
2023-03-19T08:40:34.443Z,82.51
2023-03-19T08:43:01.489Z,82.57
2023-03-19T08:45:28.340Z,82.37
2023-03-19T08:47:55.677Z,82.37
2023-03-19T08:50:22.512Z,82.48
2023-03-19T08:52:49.524Z,82.79
2023-03-19T08:55:17.288Z,82.82
2023-03-19T08:57:44.030Z,82.91
2023-03-19T09:00:11.381Z,83.07
2023-03-19T09:02:38.292Z,83.02
2023-03-19T09:07:53.236Z,82.92
2023-03-19T09:10:20.037Z,83.23
2023-03-19T09:12:50.034Z,83.13
2023-03-19T09:15:24.015Z,83.34
2023-03-19T09:17:51.028Z,83.24
2023-03-19T09:20:18.073Z,83.27
2023-03-19T09:22:44.876Z,83.42
2023-03-19T09:25:12.108Z,83.38
2023-03-19T09:27:41.390Z,83.25
2023-03-19T09:30:09.990Z,83.61
2023-03-19T09:32:36.957Z,83.56
2023-03-19T09:35:03.890Z,83.64
2023-03-19T09:37:30.619Z,83.63
2023-03-19T09:39:57.567Z,83.69
2023-03-19T09:42:58.553Z,83.61
2023-03-19T09:45:25.266Z,83.51
2023-03-19T09:47:57.034Z,83.97
2023-03-19T09:50:25.291Z,84.04
2023-03-19T09:53:01.163Z,84.07
2023-03-19T09:55:36.281Z,84.15
2023-03-19T09:58:11.406Z,83.68
2023-03-19T10:00:39.499Z,83.80
2023-03-19T10:03:31.145Z,83.86
2023-03-19T10:06:22.346Z,83.78
2023-03-19T10:09:34.004Z,83.71
2023-03-19T10:12:14.368Z,84.06
2023-03-19T10:15:06.113Z,84.15
2023-03-19T10:17:35.751Z,84.29
2023-03-19T10:20:10.721Z,84.38
2023-03-19T10:22:46.487Z,84.32
2023-03-19T10:25:19.253Z,84.51
2023-03-19T10:27:56.104Z,84.64
2023-03-19T10:30:23.069Z,84.79
2023-03-19T10:33:23.432Z,84.36
2023-03-19T10:35:58.815Z,84.34
2023-03-19T10:38:26.880Z,84.18
2023-03-19T10:41:03.318Z,84.44
2023-03-19T10:43:30.480Z,84.06
2023-03-19T10:46:13.990Z,83.92
2023-03-19T10:48:50.075Z,83.90
2023-03-19T10:51:22.380Z,83.97
2023-03-19T10:53:52.711Z,83.95
2023-03-19T10:56:26.137Z,83.83
2023-03-19T10:59:07.329Z,83.50
2023-03-19T11:01:36.618Z,83.53
2023-03-19T11:04:15.261Z,83.20
2023-03-19T11:07:27.721Z,83.08
2023-03-19T11:09:56.100Z,82.63
2023-03-19T11:13:00.029Z,82.25
2023-03-19T11:16:06.908Z,82.10
2023-03-19T11:19:01.312Z,81.37
2023-03-19T11:21:41.656Z,81.16
2023-03-19T11:24:12.322Z,80.19
2023-03-19T11:26:39.364Z,80.29
2023-03-19T11:29:37.678Z,79.90
2023-03-19T11:32:22.988Z,80.12
2023-03-19T11:35:19.183Z,79.92
2023-03-19T11:49:30.603Z,79.83
2023-03-19T11:52:22.446Z,79.58
2023-03-19T11:55:25.088Z,80.04
2023-03-19T11:58:21.627Z,79.90
2023-03-19T12:00:49.162Z,79.92
2023-03-19T12:03:38.217Z,79.85
2023-03-19T12:06:18.674Z,80.06
2023-03-19T12:08:57.501Z,80.28
2023-03-19T12:11:30.884Z,80.35
2023-03-19T12:14:16.426Z,80.10
2023-03-19T12:17:07.398Z,80.07
2023-03-19T12:19:46.143Z,80.35
2023-03-19T12:22:34.885Z,79.89
2023-03-19T12:25:20.861Z,79.95
2023-03-19T12:27:55.756Z,79.93
2023-03-19T12:30:39.328Z,79.61
2023-03-19T12:33:53.396Z,79.12
2023-03-19T12:36:27.570Z,78.66
2023-03-19T12:39:07.246Z,78.58
2023-03-19T12:41:36.911Z,78.07
2023-03-19T12:44:27.273Z,77.75
2023-03-19T12:47:15.247Z,77.23
2023-03-19T12:49:57.271Z,76.56
2023-03-19T12:52:31.339Z,76.45
2023-03-19T12:55:06.215Z,76.37
2023-03-19T12:57:40.219Z,76.05
2023-03-19T13:00:26.908Z,75.74
2023-03-19T13:03:25.662Z,75.51
2023-03-19T13:05:59.867Z,75.18
2023-03-19T13:08:33.603Z,74.79
2023-03-19T13:11:02.780Z,74.37
2023-03-19T13:13:48.799Z,73.84
2023-03-19T13:16:34.328Z,73.75
2023-03-19T13:19:13.088Z,73.55
2023-03-19T13:21:41.063Z,73.11
2023-03-19T13:24:34.845Z,72.73
2023-03-19T13:27:02.119Z,72.55
2023-03-19T13:29:32.751Z,72.05
2023-03-19T13:32:01.842Z,71.44
2023-03-19T13:42:14.989Z,70.11
2023-03-19T13:44:48.415Z,69.84
2023-03-19T13:47:29.001Z,69.25
2023-03-19T13:53:39.904Z,68.53
2023-03-19T14:00:55.284Z,67.23
2023-03-19T14:04:19.375Z,66.66
2023-03-19T14:08:17.988Z,66.48
2023-03-19T14:21:30.041Z,66.06
2023-03-19T14:24:53.306Z,66.42
2023-03-19T14:27:16.324Z,66.24
2023-03-19T14:29:44.867Z,66.58
2023-03-19T14:32:18.101Z,66.30
2023-03-19T14:34:45.875Z,66.24
2023-03-19T14:37:28.483Z,66.33
2023-03-19T14:40:03.137Z,65.88
2023-03-19T14:42:39.907Z,65.44
2023-03-19T14:45:21.958Z,65.63
2023-03-19T14:48:00.921Z,65.60
2023-03-19T14:50:42.808Z,65.04
2023-03-19T14:53:20.062Z,65.31
2023-03-19T14:55:51.853Z,64.88
2023-03-19T14:58:25.495Z,64.39
2023-03-19T15:00:54.342Z,64.16
2023-03-19T15:03:24.660Z,64.26
2023-03-19T15:06:00.139Z,63.89
2023-03-19T15:08:27.303Z,63.64
2023-03-19T15:11:16.311Z,63.08
2023-03-19T15:14:07.981Z,63.21
2023-03-19T15:17:03.690Z,62.86
2023-03-19T15:19:32.357Z,62.52
2023-03-19T15:22:22.543Z,62.12
2023-03-19T15:24:49.564Z,62.09
2023-03-19T15:27:22.064Z,61.95
2023-03-19T15:29:51.547Z,61.89
2023-03-19T15:32:50.823Z,61.68
2023-03-19T15:35:19.757Z,62.01
2023-03-19T15:37:51.196Z,61.65
2023-03-19T15:40:19.973Z,61.87
2023-03-19T15:42:47.964Z,62.02
2023-03-19T15:45:20.555Z,62.36
2023-03-19T15:47:52.903Z,62.56
2023-03-19T15:50:23.320Z,63.03
2023-03-19T15:52:53.693Z,63.07
2023-03-19T15:55:21.430Z,62.96
2023-03-19T15:57:48.405Z,62.86
2023-03-19T16:00:15.732Z,62.87
2023-03-19T16:02:48.156Z,63.35
2023-03-19T16:05:27.822Z,63.45
2023-03-19T16:07:59.934Z,63.68
2023-03-19T16:10:36.966Z,63.66
2023-03-19T16:13:23.167Z,63.98
2023-03-19T16:15:56.001Z,64.33
2023-03-19T16:18:24.712Z,64.47
2023-03-19T16:21:00.987Z,64.47
2023-03-19T16:23:36.194Z,64.72
2023-03-19T16:26:17.122Z,64.81
2023-03-19T16:28:47.931Z,64.77
2023-03-19T16:31:23.769Z,64.96
2023-03-19T16:33:52.708Z,64.97
2023-03-19T16:36:20.465Z,65.60
2023-03-19T16:38:57.715Z,65.85
2023-03-19T16:41:36.813Z,66.20
2023-03-19T16:51:17.907Z,67.36
2023-03-19T16:53:45.787Z,67.68
2023-03-19T16:56:14.043Z,67.85
2023-03-19T16:58:43.277Z,68.37
2023-03-19T17:01:19.489Z,68.35
2023-03-19T17:03:47.155Z,68.45
2023-03-19T17:06:14.921Z,68.88
2023-03-19T17:08:42.334Z,69.17
2023-03-19T17:11:31.953Z,69.41
2023-03-19T17:13:59.814Z,69.87
2023-03-19T17:16:27.817Z,70.21
2023-03-19T17:18:55.205Z,70.48
2023-03-19T17:21:25.507Z,70.94
2023-03-19T17:23:52.672Z,70.85
2023-03-19T17:26:21.998Z,71.52
2023-03-19T17:28:49.691Z,71.74
2023-03-19T17:31:31.734Z,71.93
2023-03-19T17:34:13.375Z,72.34
2023-03-19T17:36:40.353Z,72.40
2023-03-19T17:39:07.874Z,72.90
2023-03-19T17:41:37.618Z,72.92
2023-03-19T17:44:06.552Z,73.16
2023-03-19T17:46:37.877Z,73.51
2023-03-19T17:49:06.500Z,73.98
2023-03-19T17:51:33.459Z,74.00
2023-03-19T17:54:00.968Z,74.25
2023-03-19T17:56:33.128Z,74.48
2023-03-19T17:59:01.168Z,74.42
2023-03-19T18:01:28.514Z,74.52
2023-03-19T18:03:56.593Z,74.75
2023-03-19T18:06:29.601Z,74.96
2023-03-19T18:09:01.519Z,75.17
2023-03-19T18:11:37.106Z,75.37
2023-03-19T18:14:03.886Z,75.33
2023-03-19T18:16:32.197Z,75.34
2023-03-19T18:19:01.526Z,75.62
2023-03-19T18:26:29.421Z,76.06
2023-03-19T18:45:36.078Z,76.78
2023-03-19T18:49:25.645Z,77.44
2023-03-19T18:52:02.727Z,77.59
2023-03-19T18:54:32.957Z,77.77
2023-03-19T18:57:01.249Z,77.91
2023-03-19T18:59:33.187Z,77.94
2023-03-19T19:02:19.831Z,77.63
2023-03-19T19:04:46.829Z,77.96
2023-03-19T19:07:15.043Z,77.91
2023-03-19T19:09:42.302Z,77.88
2023-03-19T19:12:13.485Z,77.99
2023-03-19T19:14:40.469Z,78.08
2023-03-19T19:17:13.629Z,78.27
2023-03-19T19:19:42.863Z,78.60
2023-03-19T19:22:19.322Z,78.41
2023-03-19T19:24:46.259Z,78.54
2023-03-19T19:27:16.673Z,79.01
2023-03-19T19:29:43.574Z,78.94
2023-03-19T19:32:19.990Z,78.21
2023-03-19T19:34:46.742Z,78.22
2023-03-19T19:37:17.348Z,78.07
2023-03-19T19:39:45.002Z,77.80
2023-03-19T19:42:13.317Z,77.86
2023-03-19T19:44:40.792Z,77.68
2023-03-19T19:47:23.843Z,77.97
2023-03-19T19:50:26.560Z,77.79
2023-03-19T20:23:07.683Z,74.96
2023-03-19T20:46:41.682Z,73.93
2023-03-19T21:11:17.988Z,73.71
2023-03-19T21:22:59.652Z,73.57
2023-03-19T21:31:25.517Z,73.43
2023-03-19T21:46:10.907Z,73.64
2023-03-19T21:49:44.481Z,73.60
2023-03-19T21:53:12.916Z,73.56
2023-03-19T21:56:05.931Z,73.38
2023-03-19T21:59:00.289Z,73.14
2023-03-19T22:02:38.635Z,73.31
2023-03-19T22:06:12.944Z,73.57
2023-03-19T22:09:12.691Z,73.79
2023-03-19T22:11:46.098Z,73.50
2023-03-19T22:14:23.028Z,73.87
2023-03-19T22:17:01.415Z,74.05
2023-03-19T22:19:49.482Z,73.86
2023-03-19T22:22:45.480Z,73.92
2023-03-19T22:25:42.987Z,73.93
2023-03-19T22:29:06.515Z,74.06
2023-03-19T22:35:48.179Z,74.15
2023-03-19T22:42:52.904Z,74.11
2023-03-19T22:53:00.804Z,74.27
2023-03-19T22:56:19.117Z,74.51
2023-03-19T22:59:21.912Z,74.60
2023-03-19T23:02:24.056Z,74.63
2023-03-19T23:05:06.167Z,74.69
2023-03-19T23:07:48.232Z,74.53
2023-03-19T23:10:39.120Z,74.65
2023-03-19T23:14:26.327Z,74.64
2023-03-19T23:16:37.092Z,74.81
2023-03-19T23:19:15.679Z,74.69
2023-03-19T23:22:45.809Z,74.89
2023-03-19T23:25:44.792Z,75.19
2023-03-19T23:28:52.702Z,75.37
2023-03-19T23:35:59.123Z,75.46
2023-03-19T23:38:37.105Z,75.95
2023-03-19T23:41:40.290Z,75.89
2023-03-19T23:44:36.312Z,75.95
2023-03-19T23:51:46.603Z,76.46
